NWS Home NWS Lubbock West Texas Mesonet South Sector Latest Conditions as of 1228 PM, Sat Mar 25, 2017

Latest   N   C   S   Daily Sum   3hrΔ   24hrΔ   Soil Data 
Site Map   24hr Precip   72hr Precip   Google Plot


Station Time of Last Temp Dew Pt. RH Wind Direction Wind Speed Wind Gust Max Wind Max Temp Min Temp Max RH Min RH Altimeter 1HR Rain Today's Rain Solar Rad
Andrews 2E  12:20 PM 62 32 32% NW37 24 mph 357° @ 1210 AM 62 42 65 32 30.15" 0 0.00 822
Aspermont 3NE  12:20 PM 63 38 40% NW1017 22 mph 323° @ 1215 AM 64 43 76 39 30.07" 0 0.00 864
Big Bend NP - Persimmon Gap  12:20 PM 69 28 21% NE68 21 mph 7° @ 0742 AM 71 55 31 12 30.14" 0 0.00 880
Big Lake 1WNW  12:20 PM 66 33 29% NW48 19 mph 337° @ 1029 AM 66 44 64 29 30.14" 0 0.00 750
Brownfield 2S  12:15 PM 61 32 34% N914 24 mph 328° @ 0610 AM 61 42 67 34 30.12" 0 0.00 835
Clyde 2WNW  12:20 PM 61 41 48% NW1317 26 mph 293° @ 0925 AM 62 43 78 47 30.08" 0 0.00 866
Coyanosa 2N  12:20 PM 66 29 25% SE45 16 mph 42° @ 1202 AM 66 43 55 25 30.15" 0 0.00 761
Dell City  12:20 PM 64 32 31% SE1314 14 mph 135° @ 1220 PM 64 35 78 29 30.15" 0 0.00 815
Denver City 7WNW  12:20 PM 61 29 30% SE48 22 mph 355° @ 0100 AM 61 32 82 30 30.12" 0 0.00 830
Fluvanna 3WNW  12:20 PM 63 31 30% NW1116 25 mph 341° @ 1040 AM 63 42 70 30 30.09" 0 0.00 789
Fort Chadbourne  12:20 PM 63 41 44% W68 17 mph 299° @ 0801 AM 63 43 81 43 30.10" 0 0.00 857
Fort Lancaster  12:20 PM 68 37 32% W79 27 mph 6° @ 0107 AM 68 47 58 27 30.14" 0 0.00 855
Fort McKavett  12:20 PM 67 39 35% NW57 15 mph 316° @ 0918 AM 68 43 75 35 30.13" 0 0.00 900
Gail 2ESE  12:20 PM 66 29 25% NW814 23 mph 341° @ 0915 AM 66 43 71 25 30.09" 0 0.00 759
Graham 5SSW  12:15 PM 65 28 25% N1117 32 mph 331° @ 0945 AM 65 41 74 25 30.10" 0 0.00 765
Guadalupe Mtns Natl Park  12:20 PM 59 25 27% S812 12 mph 196° @ 1206 PM 59 35 66 27 30.19" 0 0.00 789
Haskell 1NW  12:20 PM 61 38 42% W612 26 mph 304° @ 1250 AM 61 43 76 42 30.06" 0 0.00 821
Hobbs NM 5NW  12:20 PM 59 29 31% SE68 13 mph 25° @ 1219 AM 61 36 72 30 30.16" 0 0.00 845
Jayton 1SSE  12:20 PM 63 37 38% NW714 24 mph 316° @ 0925 AM 63 40 84 38 30.07" 0 0.00 812
Junction 1SSW  12:20 PM 68 41 37% W38 12 mph 300° @ 1056 AM 68 37 96 37 30.12" 0 0.00 802
Lake Alan Henry 1NW  12:20 PM 66 32 28% N1315 24 mph 323° @ 0917 AM 67 42 73 28 30.08" 0 0.00 846
Lamesa 2SE  12:20 PM 65 33 31% NW711 24 mph 337° @ 0715 AM 65 43 68 30 30.13" 0 0.00 747
Lomax 1SSE  12:20 PM 65 31 28% NW79 27 mph 339° @ 1211 AM 65 40 71 27 30.13" 0 0.00 892
McCamey 1SSW  12:20 PM 66 31 28% S34 21 mph 30° @ 1245 AM 66 45 59 27 30.15" 0 0.00 817
Menard 2NW   12:20 PM 68 40 37% NW913 17 mph 320° @ 0918 AM 68 40 84 34 30.11" 0 0.00 850
Mertzon 3NNE  12:20 PM 68 34 29% N46 24 mph 300° @ 0849 AM 68 46 61 29 30.12" 0 0.00 784
New Home  12:20 PM 63 32 31% N811 27 mph 345° @ 1201 AM 63 40 74 31 30.12" 0 0.00 877
O'Donnell 1N  12:20 PM 64 26 24% NW1216 24 mph 337° @ 0905 AM 64 40 70 24 30.11" 0 0.00 729
Plains 3N  12:20 PM 61 29 30% S35 18 mph 341° @ 0100 AM 61 32 87 30 30.12" 0 0.00 728
Post 1NE  12:20 PM 66 29 25% NW1217 28 mph 328° @ 0935 AM 66 45 67 24 30.09" 0 0.00 860
San Angelo 7NW  12:20 PM 66 36 34% SW25 18 mph 302° @ 0930 AM 66 43 71 33 30.11" 0 0.00 831
Seagraves 1SW  12:20 PM 61 32 34% NW35 19 mph 347° @ 0100 AM 61 35 85 34 30.13" 0 0.00 765
Seminole 2NNE  12:20 PM 61 32 34% N312 26 mph 358° @ 1210 AM 61 37 77 34 30.14" 0 0.00 852
Sierra Blanca 1SSE  12:20 PM 67 23 19% S1213 18 mph 177° @ 1137 AM 67 44 47 19 30.16" 0 0.00 880
Snyder 3E  12:20 PM 64 37 37% NW614 25 mph 324° @ 1225 AM 64 43 78 37 30.10" 0 0.00 735
Snyder 3SSW  12:20 PM 63 36 38% W23 25 mph 319° @ 1222 AM 63 43 74 38 30.10" 0 0.00 882
St. Lawrence 5SW  12:20 PM 64 26 24% NW69 23 mph 345° @ 1250 AM 64 41 62 24 30.13" 0 0.00 866
Stamford 5ESE  12:20 PM 63 40 43% NW911 26 mph 310° @ 0935 AM 63 42 78 43 30.08" 0 0.00 909
Sterling City 4WSW  12:20 PM 66 34 30% NW812 16 mph 311° @ 0125 AM 66 43 67 29 30.12" 0 0.00 775
Sundown 8WSW  12:20 PM 61 30 30% NW59 26 mph 337° @ 1235 AM 62 34 85 30 30.12" 0 0.00 720
Sweetwater 11SW   12:20 PM 61 39 43% NW1114 23 mph 317° @ 1202 AM 62 38 87 43 30.11" 0 0.00 878
Tahoka 3NNE  12:20 PM 64 28 25% NW913 24 mph 328° @ 1021 AM 65 39 73 25 30.10" 0 0.00 860
Tarzan 2WNW  12:20 PM 64 32 30% NW46 24 mph 346° @ 1216 AM 64 41 70 30 30.14" 0 0.00 894
Tatum NM 2SW  12:20 PM 64 28 26% S813 14 mph 10° @ 1210 AM 64 29 83 26 30.13" 0 0.00 784
Throckmorton 1SW  12:20 PM 61 44 53% NW1518 30 mph 302° @ 1203 AM 61 47 81 52 30.07" 0 0.00 882
Wall 2E  12:20 PM 65 38 37% W912 21 mph 308° @ 0941 AM 65 43 68 35 30.12" 0 0.00 916
Weinert 2NNE  12:20 PM 60 39 46% N69 26 mph 316° @ 1202 AM 61 43 77 45 30.06" 0 0.00 850
Welch  12:20 PM 62 32 32% N1013 21 mph 339° @ 0907 AM 63 40 71 31 30.13" 0 0.00 855

West Texas Mesonet Home   Site Map/Menu  NWS Lubbock Soil Data  Daily Summary Page  24hr Precip  72hr Precip  Google Plot